Terminal Aerodrome Forecast
Issued by NWS

Home | Current Version | Previous Version | Text Only | Print | Product List | Glossary On
Versions: 1 2 3 4 5 6 7 8 9 10 11 12 13 14 15 16 17 18 19 20 21 22 23 24 25 26 27 28 29 30 31 32 33 34 35 36 37 38 39 40 41 42 43 44 45 46 47 48 49 50
000
FTUS41 KCTP 311746 AAA
TAFAOO
TAF AMD
KAOO 311746Z 3118/0118 25006KT 3SM -SHRA VCTS BKN035CB
      TEMPO 3118/3119 1SM -TSRA OVC030CB
     FM311900 25006KT 6SM HZ VCSH BKN040
     FM010100 00000KT 6SM BR FEW040
     FM010600 24002KT 4SM BR SCT090
     FM011300 29005KT P6SM SCT040 BKN090=

USA.gov is the U.S. government's official web portal to all federal, state and local government web resources and services.